sensor_id;sensor_type;location;lat;lon;timestamp;P1;durP1;ratioP1;P2;durP2;ratioP2
13641;SDS011;6894;52.196;9.904;2023-09-12T00:00:08;15.20;;;10.13;;
13641;SDS011;6894;52.196;9.904;2023-09-12T00:02:36;12.67;;;9.37;;
13641;SDS011;6894;52.196;9.904;2023-09-12T00:05:03;13.50;;;10.00;;
13641;SDS011;6894;52.196;9.904;2023-09-12T00:07:30;14.43;;;10.33;;
13641;SDS011;6894;52.196;9.904;2023-09-12T00:09:57;12.13;;;9.90;;
13641;SDS011;6894;52.196;9.904;2023-09-12T00:12:24;12.27;;;10.33;;
13641;SDS011;6894;52.196;9.904;2023-09-12T00:14:50;15.20;;;10.67;;
13641;SDS011;6894;52.196;9.904;2023-09-12T00:17:19;14.10;;;10.90;;
13641;SDS011;6894;52.196;9.904;2023-09-12T00:19:45;12.03;;;10.80;;
13641;SDS011;6894;52.196;9.904;2023-09-12T00:22:12;11.83;;;9.83;;
13641;SDS011;6894;52.196;9.904;2023-09-12T00:24:39;13.13;;;9.77;;
13641;SDS011;6894;52.196;9.904;2023-09-12T00:27:06;11.83;;;9.90;;
13641;SDS011;6894;52.196;9.904;2023-09-12T00:29:32;12.70;;;11.07;;
13641;SDS011;6894;52.196;9.904;2023-09-12T00:31:59;12.73;;;10.87;;
13641;SDS011;6894;52.196;9.904;2023-09-12T00:34:27;12.43;;;10.83;;
13641;SDS011;6894;52.196;9.904;2023-09-12T00:36:54;13.43;;;11.30;;
13641;SDS011;6894;52.196;9.904;2023-09-12T00:39:21;14.67;;;12.57;;
13641;SDS011;6894;52.196;9.904;2023-09-12T00:41:47;12.63;;;11.33;;
13641;SDS011;6894;52.196;9.904;2023-09-12T00:44:14;13.50;;;11.10;;
13641;SDS011;6894;52.196;9.904;2023-09-12T00:46:41;14.70;;;11.47;;
13641;SDS011;6894;52.196;9.904;2023-09-12T00:49:09;15.43;;;12.17;;
13641;SDS011;6894;52.196;9.904;2023-09-12T00:51:39;15.03;;;11.40;;
13641;SDS011;6894;52.196;9.904;2023-09-12T00:54:06;13.73;;;11.80;;
13641;SDS011;6894;52.196;9.904;2023-09-12T00:56:33;15.07;;;12.37;;
13641;SDS011;6894;52.196;9.904;2023-09-12T00:59:00;14.07;;;12.83;;
13641;SDS011;6894;52.196;9.904;2023-09-12T01:01:28;16.77;;;13.47;;
13641;SDS011;6894;52.196;9.904;2023-09-12T01:03:55;13.20;;;11.90;;
13641;SDS011;6894;52.196;9.904;2023-09-12T01:06:24;17.50;;;13.87;;
13641;SDS011;6894;52.196;9.904;2023-09-12T01:08:54;16.17;;;12.83;;
13641;SDS011;6894;52.196;9.904;2023-09-12T01:11:21;15.20;;;13.63;;
13641;SDS011;6894;52.196;9.904;2023-09-12T01:13:49;15.67;;;13.67;;
13641;SDS011;6894;52.196;9.904;2023-09-12T01:16:15;15.07;;;12.80;;
13641;SDS011;6894;52.196;9.904;2023-09-12T01:18:42;15.73;;;14.20;;
13641;SDS011;6894;52.196;9.904;2023-09-12T01:21:16;13.93;;;12.57;;
13641;SDS011;6894;52.196;9.904;2023-09-12T01:24:07;12.57;;;11.27;;
13641;SDS011;6894;52.196;9.904;2023-09-12T01:26:56;14.83;;;12.03;;
13641;SDS011;6894;52.196;9.904;2023-09-12T01:29:35;12.60;;;11.50;;
13641;SDS011;6894;52.196;9.904;2023-09-12T01:32:03;14.40;;;13.00;;
13641;SDS011;6894;52.196;9.904;2023-09-12T01:34:30;15.70;;;14.10;;
13641;SDS011;6894;52.196;9.904;2023-09-12T01:36:57;18.20;;;14.13;;
13641;SDS011;6894;52.196;9.904;2023-09-12T01:39:23;15.83;;;14.13;;
13641;SDS011;6894;52.196;9.904;2023-09-12T01:41:50;15.57;;;13.90;;
13641;SDS011;6894;52.196;9.904;2023-09-12T01:44:21;13.33;;;12.07;;
13641;SDS011;6894;52.196;9.904;2023-09-12T01:46:51;15.03;;;13.40;;
13641;SDS011;6894;52.196;9.904;2023-09-12T01:49:19;14.93;;;11.77;;
13641;SDS011;6894;52.196;9.904;2023-09-12T01:51:49;15.47;;;13.90;;
13641;SDS011;6894;52.196;9.904;2023-09-12T01:54:16;15.20;;;13.67;;
13641;SDS011;6894;52.196;9.904;2023-09-12T01:56:44;17.07;;;13.30;;
13641;SDS011;6894;52.196;9.904;2023-09-12T01:59:11;16.80;;;13.10;;
13641;SDS011;6894;52.196;9.904;2023-09-12T02:01:40;13.60;;;11.93;;
13641;SDS011;6894;52.196;9.904;2023-09-12T02:04:07;14.90;;;13.17;;
13641;SDS011;6894;52.196;9.904;2023-09-12T02:06:34;15.03;;;11.93;;
13641;SDS011;6894;52.196;9.904;2023-09-12T02:09:01;13.57;;;12.13;;
13641;SDS011;6894;52.196;9.904;2023-09-12T02:11:28;16.40;;;13.83;;
13641;SDS011;6894;52.196;9.904;2023-09-12T02:13:54;13.03;;;11.30;;
13641;SDS011;6894;52.196;9.904;2023-09-12T02:16:21;13.07;;;11.87;;
13641;SDS011;6894;52.196;9.904;2023-09-12T02:18:49;14.00;;;11.67;;
13641;SDS011;6894;52.196;9.904;2023-09-12T02:21:16;17.43;;;14.23;;
13641;SDS011;6894;52.196;9.904;2023-09-12T02:23:43;17.33;;;15.00;;
13641;SDS011;6894;52.196;9.904;2023-09-12T02:26:10;16.83;;;14.40;;
13641;SDS011;6894;52.196;9.904;2023-09-12T02:28:36;17.70;;;15.77;;
13641;SDS011;6894;52.196;9.904;2023-09-12T02:31:03;16.80;;;15.13;;
13641;SDS011;6894;52.196;9.904;2023-09-12T02:33:36;20.77;;;17.70;;
13641;SDS011;6894;52.196;9.904;2023-09-12T02:36:05;17.70;;;16.00;;
13641;SDS011;6894;52.196;9.904;2023-09-12T02:38:32;19.10;;;17.13;;
13641;SDS011;6894;52.196;9.904;2023-09-12T02:40:59;20.90;;;17.63;;
13641;SDS011;6894;52.196;9.904;2023-09-12T02:43:27;18.87;;;17.00;;
13641;SDS011;6894;52.196;9.904;2023-09-12T02:45:53;23.17;;;16.97;;
13641;SDS011;6894;52.196;9.904;2023-09-12T02:48:20;18.23;;;16.30;;
13641;SDS011;6894;52.196;9.904;2023-09-12T02:50:47;16.80;;;15.00;;
13641;SDS011;6894;52.196;9.904;2023-09-12T02:53:15;17.33;;;15.37;;
13641;SDS011;6894;52.196;9.904;2023-09-12T02:55:41;14.77;;;13.40;;
13641;SDS011;6894;52.196;9.904;2023-09-12T02:58:08;18.37;;;16.77;;
13641;SDS011;6894;52.196;9.904;2023-09-12T03:00:37;16.83;;;15.03;;
13641;SDS011;6894;52.196;9.904;2023-09-12T03:03:05;18.13;;;16.23;;
13641;SDS011;6894;52.196;9.904;2023-09-12T03:05:34;21.10;;;19.10;;
13641;SDS011;6894;52.196;9.904;2023-09-12T03:08:00;21.30;;;18.23;;
13641;SDS011;6894;52.196;9.904;2023-09-12T03:10:29;19.23;;;17.23;;
13641;SDS011;6894;52.196;9.904;2023-09-12T03:12:55;21.80;;;19.63;;
13641;SDS011;6894;52.196;9.904;2023-09-12T03:15:22;18.23;;;16.67;;
13641;SDS011;6894;52.196;9.904;2023-09-12T03:17:49;19.20;;;16.93;;
13641;SDS011;6894;52.196;9.904;2023-09-12T03:20:15;25.83;;;18.67;;
13641;SDS011;6894;52.196;9.904;2023-09-12T03:22:42;18.67;;;16.93;;
13641;SDS011;6894;52.196;9.904;2023-09-12T03:25:10;20.50;;;17.70;;
13641;SDS011;6894;52.196;9.904;2023-09-12T03:27:38;18.70;;;16.90;;
13641;SDS011;6894;52.196;9.904;2023-09-12T03:30:05;21.80;;;18.17;;
13641;SDS011;6894;52.196;9.904;2023-09-12T03:32:33;21.10;;;18.70;;
13641;SDS011;6894;52.196;9.904;2023-09-12T03:34:59;20.50;;;18.50;;
13641;SDS011;6894;52.196;9.904;2023-09-12T03:37:26;21.17;;;19.00;;
13641;SDS011;6894;52.196;9.904;2023-09-12T03:39:53;21.10;;;19.00;;
13641;SDS011;6894;52.196;9.904;2023-09-12T03:42:20;20.67;;;17.50;;
13641;SDS011;6894;52.196;9.904;2023-09-12T03:44:48;18.00;;;16.30;;
13641;SDS011;6894;52.196;9.904;2023-09-12T03:47:15;19.33;;;17.33;;
13641;SDS011;6894;52.196;9.904;2023-09-12T03:49:41;18.83;;;17.10;;
13641;SDS011;6894;52.196;9.904;2023-09-12T03:52:08;19.83;;;17.37;;
13641;SDS011;6894;52.196;9.904;2023-09-12T03:54:35;19.40;;;17.13;;
13641;SDS011;6894;52.196;9.904;2023-09-12T03:57:01;23.53;;;17.93;;
13641;SDS011;6894;52.196;9.904;2023-09-12T03:59:28;25.33;;;18.97;;
13641;SDS011;6894;52.196;9.904;2023-09-12T04:01:56;21.80;;;18.97;;
13641;SDS011;6894;52.196;9.904;2023-09-12T04:04:23;20.97;;;18.90;;
13641;SDS011;6894;52.196;9.904;2023-09-12T04:06:49;19.37;;;17.53;;
13641;SDS011;6894;52.196;9.904;2023-09-12T04:09:16;21.00;;;18.87;;
13641;SDS011;6894;52.196;9.904;2023-09-12T04:11:43;21.50;;;19.30;;
13641;SDS011;6894;52.196;9.904;2023-09-12T04:14:10;22.33;;;20.23;;
13641;SDS011;6894;52.196;9.904;2023-09-12T04:16:36;21.00;;;19.03;;
13641;SDS011;6894;52.196;9.904;2023-09-12T04:19:04;23.53;;;19.00;;
13641;SDS011;6894;52.196;9.904;2023-09-12T04:21:31;19.47;;;17.60;;
13641;SDS011;6894;52.196;9.904;2023-09-12T04:23:58;19.77;;;17.23;;
13641;SDS011;6894;52.196;9.904;2023-09-12T04:26:25;23.00;;;18.93;;
13641;SDS011;6894;52.196;9.904;2023-09-12T04:28:51;20.23;;;17.40;;
13641;SDS011;6894;52.196;9.904;2023-09-12T04:31:18;20.97;;;18.73;;
13641;SDS011;6894;52.196;9.904;2023-09-12T04:33:45;17.93;;;16.23;;
13641;SDS011;6894;52.196;9.904;2023-09-12T04:36:13;21.50;;;19.37;;
13641;SDS011;6894;52.196;9.904;2023-09-12T04:38:39;21.40;;;19.23;;
13641;SDS011;6894;52.196;9.904;2023-09-12T04:41:06;22.73;;;20.43;;
13641;SDS011;6894;52.196;9.904;2023-09-12T04:43:33;25.37;;;20.80;;
13641;SDS011;6894;52.196;9.904;2023-09-12T04:46:00;21.20;;;19.03;;
13641;SDS011;6894;52.196;9.904;2023-09-12T04:48:27;22.67;;;20.27;;
13641;SDS011;6894;52.196;9.904;2023-09-12T04:50:53;23.27;;;20.97;;
13641;SDS011;6894;52.196;9.904;2023-09-12T04:53:23;22.77;;;20.53;;
13641;SDS011;6894;52.196;9.904;2023-09-12T04:55:51;23.87;;;21.60;;
13641;SDS011;6894;52.196;9.904;2023-09-12T04:58:18;23.53;;;21.03;;
13641;SDS011;6894;52.196;9.904;2023-09-12T05:00:45;21.43;;;19.13;;
13641;SDS011;6894;52.196;9.904;2023-09-12T05:03:12;25.33;;;22.10;;
13641;SDS011;6894;52.196;9.904;2023-09-12T05:05:39;24.07;;;21.60;;
13641;SDS011;6894;52.196;9.904;2023-09-12T05:08:05;25.87;;;22.90;;
13641;SDS011;6894;52.196;9.904;2023-09-12T05:10:33;23.50;;;21.13;;
13641;SDS011;6894;52.196;9.904;2023-09-12T05:13:01;22.47;;;19.13;;
13641;SDS011;6894;52.196;9.904;2023-09-12T05:15:28;20.33;;;18.23;;
13641;SDS011;6894;52.196;9.904;2023-09-12T05:17:55;19.20;;;17.23;;
13641;SDS011;6894;52.196;9.904;2023-09-12T05:20:21;19.73;;;17.83;;
13641;SDS011;6894;52.196;9.904;2023-09-12T05:22:48;19.87;;;17.80;;
13641;SDS011;6894;52.196;9.904;2023-09-12T05:25:15;18.97;;;17.17;;
13641;SDS011;6894;52.196;9.904;2023-09-12T05:27:43;20.70;;;18.70;;
13641;SDS011;6894;52.196;9.904;2023-09-12T05:30:10;22.60;;;17.13;;
13641;SDS011;6894;52.196;9.904;2023-09-12T05:32:37;22.03;;;19.43;;
13641;SDS011;6894;52.196;9.904;2023-09-12T05:35:04;18.43;;;15.80;;
13641;SDS011;6894;52.196;9.904;2023-09-12T05:37:31;21.63;;;18.27;;
13641;SDS011;6894;52.196;9.904;2023-09-12T05:39:57;21.10;;;16.73;;
13641;SDS011;6894;52.196;9.904;2023-09-12T05:42:24;19.87;;;17.67;;
13641;SDS011;6894;52.196;9.904;2023-09-12T05:44:52;23.33;;;18.13;;
13641;SDS011;6894;52.196;9.904;2023-09-12T05:47:19;20.13;;;18.13;;
13641;SDS011;6894;52.196;9.904;2023-09-12T05:49:46;20.10;;;17.93;;
13641;SDS011;6894;52.196;9.904;2023-09-12T05:52:13;18.73;;;16.80;;
13641;SDS011;6894;52.196;9.904;2023-09-12T05:54:40;23.90;;;21.07;;
13641;SDS011;6894;52.196;9.904;2023-09-12T05:57:07;22.40;;;20.20;;
13641;SDS011;6894;52.196;9.904;2023-09-12T06:02:03;20.23;;;18.23;;
13641;SDS011;6894;52.196;9.904;2023-09-12T06:04:31;21.10;;;18.97;;
13641;SDS011;6894;52.196;9.904;2023-09-12T06:06:57;22.00;;;19.50;;
13641;SDS011;6894;52.196;9.904;2023-09-12T06:09:24;23.07;;;20.77;;
13641;SDS011;6894;52.196;9.904;2023-09-12T06:11:51;22.10;;;19.83;;
13641;SDS011;6894;52.196;9.904;2023-09-12T06:14:18;22.57;;;20.30;;
13641;SDS011;6894;52.196;9.904;2023-09-12T06:16:44;24.40;;;21.60;;
13641;SDS011;6894;52.196;9.904;2023-09-12T06:19:13;22.77;;;20.67;;
13641;SDS011;6894;52.196;9.904;2023-09-12T06:21:40;23.80;;;20.47;;
13641;SDS011;6894;52.196;9.904;2023-09-12T06:24:08;25.23;;;22.30;;
13641;SDS011;6894;52.196;9.904;2023-09-12T06:26:36;25.27;;;21.00;;
13641;SDS011;6894;52.196;9.904;2023-09-12T06:29:04;25.47;;;21.70;;
13641;SDS011;6894;52.196;9.904;2023-09-12T06:31:30;26.50;;;19.50;;
13641;SDS011;6894;52.196;9.904;2023-09-12T06:33:58;23.67;;;19.53;;
13641;SDS011;6894;52.196;9.904;2023-09-12T06:36:27;26.13;;;20.07;;
13641;SDS011;6894;52.196;9.904;2023-09-12T06:38:55;25.33;;;21.13;;
13641;SDS011;6894;52.196;9.904;2023-09-12T06:41:22;27.27;;;22.13;;
13641;SDS011;6894;52.196;9.904;2023-09-12T06:43:48;26.03;;;23.13;;
13641;SDS011;6894;52.196;9.904;2023-09-12T06:46:15;27.67;;;23.10;;
13641;SDS011;6894;52.196;9.904;2023-09-12T06:48:43;26.70;;;23.67;;
13641;SDS011;6894;52.196;9.904;2023-09-12T06:51:10;30.97;;;23.43;;
13641;SDS011;6894;52.196;9.904;2023-09-12T06:53:39;30.23;;;24.43;;
13641;SDS011;6894;52.196;9.904;2023-09-12T06:56:05;24.43;;;21.80;;
13641;SDS011;6894;52.196;9.904;2023-09-12T06:58:32;26.87;;;22.50;;
13641;SDS011;6894;52.196;9.904;2023-09-12T07:01:01;26.40;;;23.50;;
13641;SDS011;6894;52.196;9.904;2023-09-12T07:03:29;27.27;;;24.23;;
13641;SDS011;6894;52.196;9.904;2023-09-12T07:05:56;26.80;;;24.07;;
13641;SDS011;6894;52.196;9.904;2023-09-12T07:08:22;24.33;;;21.97;;
13641;SDS011;6894;52.196;9.904;2023-09-12T07:10:50;28.60;;;23.67;;
13641;SDS011;6894;52.196;9.904;2023-09-12T07:13:19;30.87;;;26.57;;
13641;SDS011;6894;52.196;9.904;2023-09-12T07:15:46;32.30;;;26.87;;
13641;SDS011;6894;52.196;9.904;2023-09-12T07:18:13;34.50;;;28.97;;
13641;SDS011;6894;52.196;9.904;2023-09-12T07:20:41;34.60;;;28.07;;
13641;SDS011;6894;52.196;9.904;2023-09-12T07:23:07;30.70;;;27.20;;
13641;SDS011;6894;52.196;9.904;2023-09-12T07:25:38;29.97;;;26.33;;
13641;SDS011;6894;52.196;9.904;2023-09-12T07:28:07;32.47;;;25.03;;
13641;SDS011;6894;52.196;9.904;2023-09-12T07:30:34;30.03;;;26.83;;
13641;SDS011;6894;52.196;9.904;2023-09-12T07:33:02;28.87;;;25.67;;
13641;SDS011;6894;52.196;9.904;2023-09-12T07:35:29;28.03;;;25.23;;
13641;SDS011;6894;52.196;9.904;2023-09-12T07:37:55;29.47;;;26.43;;
13641;SDS011;6894;52.196;9.904;2023-09-12T07:40:22;33.00;;;27.20;;
13641;SDS011;6894;52.196;9.904;2023-09-12T07:42:49;30.73;;;27.33;;
13641;SDS011;6894;52.196;9.904;2023-09-12T07:45:17;33.53;;;27.03;;
13641;SDS011;6894;52.196;9.904;2023-09-12T07:47:45;29.60;;;26.70;;
13641;SDS011;6894;52.196;9.904;2023-09-12T07:50:12;29.10;;;26.00;;
13641;SDS011;6894;52.196;9.904;2023-09-12T07:52:39;27.90;;;25.00;;
13641;SDS011;6894;52.196;9.904;2023-09-12T07:55:06;24.33;;;22.03;;
13641;SDS011;6894;52.196;9.904;2023-09-12T07:57:34;23.67;;;21.20;;
13641;SDS011;6894;52.196;9.904;2023-09-12T08:00:01;22.63;;;20.30;;
13641;SDS011;6894;52.196;9.904;2023-09-12T08:02:33;23.53;;;21.10;;
13641;SDS011;6894;52.196;9.904;2023-09-12T08:05:00;23.10;;;20.40;;
13641;SDS011;6894;52.196;9.904;2023-09-12T08:07:27;23.97;;;21.47;;
13641;SDS011;6894;52.196;9.904;2023-09-12T08:09:54;23.07;;;20.97;;
13641;SDS011;6894;52.196;9.904;2023-09-12T08:12:23;22.57;;;20.33;;
13641;SDS011;6894;52.196;9.904;2023-09-12T08:14:50;21.80;;;19.67;;
13641;SDS011;6894;52.196;9.904;2023-09-12T08:17:18;21.30;;;19.37;;
13641;SDS011;6894;52.196;9.904;2023-09-12T08:19:46;21.43;;;19.40;;
13641;SDS011;6894;52.196;9.904;2023-09-12T08:22:12;20.93;;;18.83;;
13641;SDS011;6894;52.196;9.904;2023-09-12T08:24:39;18.90;;;17.10;;
13641;SDS011;6894;52.196;9.904;2023-09-12T08:27:06;19.57;;;17.70;;
13641;SDS011;6894;52.196;9.904;2023-09-12T08:29:34;17.03;;;15.27;;
13641;SDS011;6894;52.196;9.904;2023-09-12T08:32:01;14.40;;;13.17;;
13641;SDS011;6894;52.196;9.904;2023-09-12T08:34:28;14.53;;;13.03;;
13641;SDS011;6894;52.196;9.904;2023-09-12T08:36:56;14.13;;;12.83;;
13641;SDS011;6894;52.196;9.904;2023-09-12T08:39:23;13.33;;;11.83;;
13641;SDS011;6894;52.196;9.904;2023-09-12T08:41:50;12.10;;;11.10;;
13641;SDS011;6894;52.196;9.904;2023-09-12T08:44:18;12.10;;;10.87;;
13641;SDS011;6894;52.196;9.904;2023-09-12T08:46:45;13.93;;;12.53;;
13641;SDS011;6894;52.196;9.904;2023-09-12T08:49:12;16.53;;;14.87;;
13641;SDS011;6894;52.196;9.904;2023-09-12T08:51:39;18.87;;;17.07;;
13641;SDS011;6894;52.196;9.904;2023-09-12T08:54:08;19.63;;;17.90;;
13641;SDS011;6894;52.196;9.904;2023-09-12T08:56:35;20.30;;;17.90;;
13641;SDS011;6894;52.196;9.904;2023-09-12T08:59:04;18.93;;;17.30;;
13641;SDS011;6894;52.196;9.904;2023-09-12T09:01:32;20.10;;;18.00;;
13641;SDS011;6894;52.196;9.904;2023-09-12T09:04:00;18.57;;;16.70;;
13641;SDS011;6894;52.196;9.904;2023-09-12T09:06:28;19.77;;;17.87;;
13641;SDS011;6894;52.196;9.904;2023-09-12T09:08:56;18.73;;;17.03;;
13641;SDS011;6894;52.196;9.904;2023-09-12T09:11:26;18.37;;;16.57;;
13641;SDS011;6894;52.196;9.904;2023-09-12T09:13:53;19.80;;;18.00;;
13641;SDS011;6894;52.196;9.904;2023-09-12T09:16:21;18.17;;;16.63;;
13641;SDS011;6894;52.196;9.904;2023-09-12T09:18:50;19.50;;;16.93;;
13641;SDS011;6894;52.196;9.904;2023-09-12T09:21:17;17.27;;;15.67;;
13641;SDS011;6894;52.196;9.904;2023-09-12T09:23:45;15.40;;;13.80;;
13641;SDS011;6894;52.196;9.904;2023-09-12T09:26:12;15.97;;;14.37;;
13641;SDS011;6894;52.196;9.904;2023-09-12T09:28:41;15.20;;;13.80;;
13641;SDS011;6894;52.196;9.904;2023-09-12T09:31:09;15.50;;;14.10;;
13641;SDS011;6894;52.196;9.904;2023-09-12T09:33:37;14.53;;;13.20;;
13641;SDS011;6894;52.196;9.904;2023-09-12T09:36:05;11.93;;;10.73;;
13641;SDS011;6894;52.196;9.904;2023-09-12T09:38:33;11.80;;;10.63;;
13641;SDS011;6894;52.196;9.904;2023-09-12T09:41:03;9.53;;;8.57;;
13641;SDS011;6894;52.196;9.904;2023-09-12T09:43:30;8.50;;;7.50;;
13641;SDS011;6894;52.196;9.904;2023-09-12T09:45:59;7.40;;;6.70;;
13641;SDS011;6894;52.196;9.904;2023-09-12T09:48:26;6.47;;;5.67;;
13641;SDS011;6894;52.196;9.904;2023-09-12T09:50:53;5.37;;;4.87;;
13641;SDS011;6894;52.196;9.904;2023-09-12T09:53:26;5.27;;;4.63;;
13641;SDS011;6894;52.196;9.904;2023-09-12T09:55:58;4.30;;;3.80;;
13641;SDS011;6894;52.196;9.904;2023-09-12T09:58:34;5.10;;;4.60;;
13641;SDS011;6894;52.196;9.904;2023-09-12T10:01:02;4.30;;;3.83;;
13641;SDS011;6894;52.196;9.904;2023-09-12T10:03:31;4.07;;;3.70;;
13641;SDS011;6894;52.196;9.904;2023-09-12T10:06:01;4.07;;;3.70;;
13641;SDS011;6894;52.196;9.904;2023-09-12T10:08:31;4.83;;;4.43;;
13641;SDS011;6894;52.196;9.904;2023-09-12T10:11:00;4.30;;;4.00;;
13641;SDS011;6894;52.196;9.904;2023-09-12T10:13:29;4.30;;;4.00;;
13641;SDS011;6894;52.196;9.904;2023-09-12T10:15:59;4.60;;;4.20;;
13641;SDS011;6894;52.196;9.904;2023-09-12T10:18:31;5.20;;;4.70;;
13641;SDS011;6894;52.196;9.904;2023-09-12T10:21:03;4.57;;;4.27;;
13641;SDS011;6894;52.196;9.904;2023-09-12T10:23:37;5.43;;;4.93;;
13641;SDS011;6894;52.196;9.904;2023-09-12T10:26:09;4.80;;;4.30;;
13641;SDS011;6894;52.196;9.904;2023-09-12T10:28:37;4.73;;;4.33;;
13641;SDS011;6894;52.196;9.904;2023-09-12T10:31:06;4.83;;;4.43;;
13641;SDS011;6894;52.196;9.904;2023-09-12T10:33:35;4.10;;;3.70;;
13641;SDS011;6894;52.196;9.904;2023-09-12T10:36:02;5.13;;;4.63;;
13641;SDS011;6894;52.196;9.904;2023-09-12T10:38:32;4.80;;;4.30;;
13641;SDS011;6894;52.196;9.904;2023-09-12T10:40:59;5.00;;;4.60;;
13641;SDS011;6894;52.196;9.904;2023-09-12T10:43:28;4.77;;;4.37;;
13641;SDS011;6894;52.196;9.904;2023-09-12T10:45:58;4.33;;;4.03;;
13641;SDS011;6894;52.196;9.904;2023-09-12T10:48:28;4.37;;;4.07;;
13641;SDS011;6894;52.196;9.904;2023-09-12T10:50:57;4.20;;;3.87;;
13641;SDS011;6894;52.196;9.904;2023-09-12T10:53:24;4.00;;;3.70;;
13641;SDS011;6894;52.196;9.904;2023-09-12T10:56:00;4.87;;;4.47;;
13641;SDS011;6894;52.196;9.904;2023-09-12T10:58:27;4.00;;;3.70;;
13641;SDS011;6894;52.196;9.904;2023-09-12T11:03:50;5.20;;;4.13;;
13641;SDS011;6894;52.196;9.904;2023-09-12T11:06:22;4.80;;;4.40;;
13641;SDS011;6894;52.196;9.904;2023-09-12T11:11:45;5.47;;;5.07;;
13641;SDS011;6894;52.196;9.904;2023-09-12T11:14:13;4.90;;;4.33;;
13641;SDS011;6894;52.196;9.904;2023-09-12T11:16:41;4.60;;;4.20;;
13641;SDS011;6894;52.196;9.904;2023-09-12T11:19:13;4.47;;;4.07;;
13641;SDS011;6894;52.196;9.904;2023-09-12T11:21:44;4.87;;;4.40;;
13641;SDS011;6894;52.196;9.904;2023-09-12T11:24:11;4.40;;;4.00;;
13641;SDS011;6894;52.196;9.904;2023-09-12T11:26:55;6.03;;;5.53;;
13641;SDS011;6894;52.196;9.904;2023-09-12T11:29:26;5.83;;;5.33;;
13641;SDS011;6894;52.196;9.904;2023-09-12T11:31:54;5.30;;;4.90;;
13641;SDS011;6894;52.196;9.904;2023-09-12T11:34:24;5.10;;;4.70;;
13641;SDS011;6894;52.196;9.904;2023-09-12T11:36:55;5.00;;;4.60;;
13641;SDS011;6894;52.196;9.904;2023-09-12T11:39:23;5.00;;;4.60;;
13641;SDS011;6894;52.196;9.904;2023-09-12T11:41:50;5.83;;;5.30;;
13641;SDS011;6894;52.196;9.904;2023-09-12T11:44:18;6.00;;;5.40;;
13641;SDS011;6894;52.196;9.904;2023-09-12T11:46:47;5.57;;;5.07;;
13641;SDS011;6894;52.196;9.904;2023-09-12T11:49:15;5.80;;;5.37;;
13641;SDS011;6894;52.196;9.904;2023-09-12T11:51:46;6.97;;;5.83;;
13641;SDS011;6894;52.196;9.904;2023-09-12T11:54:15;6.80;;;6.20;;
13641;SDS011;6894;52.196;9.904;2023-09-12T11:56:44;6.63;;;5.97;;
13641;SDS011;6894;52.196;9.904;2023-09-12T11:59:12;6.53;;;5.93;;
13641;SDS011;6894;52.196;9.904;2023-09-12T12:01:39;6.57;;;5.97;;
13641;SDS011;6894;52.196;9.904;2023-09-12T12:04:06;6.00;;;5.50;;
13641;SDS011;6894;52.196;9.904;2023-09-12T12:06:33;6.03;;;5.43;;
13641;SDS011;6894;52.196;9.904;2023-09-12T12:09:02;5.57;;;5.10;;
13641;SDS011;6894;52.196;9.904;2023-09-12T12:11:30;5.87;;;5.37;;
13641;SDS011;6894;52.196;9.904;2023-09-12T12:13:57;5.57;;;5.10;;
13641;SDS011;6894;52.196;9.904;2023-09-12T12:16:34;5.60;;;5.10;;
13641;SDS011;6894;52.196;9.904;2023-09-12T12:19:01;5.47;;;5.07;;
13641;SDS011;6894;52.196;9.904;2023-09-12T12:21:28;5.63;;;5.00;;
13641;SDS011;6894;52.196;9.904;2023-09-12T12:23:59;5.30;;;4.80;;
13641;SDS011;6894;52.196;9.904;2023-09-12T12:26:26;5.53;;;5.03;;
13641;SDS011;6894;52.196;9.904;2023-09-12T12:28:54;4.93;;;4.53;;
13641;SDS011;6894;52.196;9.904;2023-09-12T12:31:21;5.27;;;4.87;;
13641;SDS011;6894;52.196;9.904;2023-09-12T12:33:49;4.87;;;4.47;;
13641;SDS011;6894;52.196;9.904;2023-09-12T12:36:18;5.40;;;4.90;;
13641;SDS011;6894;52.196;9.904;2023-09-12T12:38:46;6.33;;;5.17;;
13641;SDS011;6894;52.196;9.904;2023-09-12T12:41:14;6.33;;;5.30;;
13641;SDS011;6894;52.196;9.904;2023-09-12T12:43:42;5.23;;;4.83;;
13641;SDS011;6894;52.196;9.904;2023-09-12T12:46:13;5.43;;;4.93;;
13641;SDS011;6894;52.196;9.904;2023-09-12T12:48:43;8.17;;;5.90;;
13641;SDS011;6894;52.196;9.904;2023-09-12T12:51:14;7.20;;;6.27;;
13641;SDS011;6894;52.196;9.904;2023-09-12T12:53:42;7.80;;;6.53;;
13641;SDS011;6894;52.196;9.904;2023-09-12T12:56:14;6.53;;;5.93;;
13641;SDS011;6894;52.196;9.904;2023-09-12T12:58:47;7.17;;;6.03;;
13641;SDS011;6894;52.196;9.904;2023-09-12T13:01:16;6.93;;;6.23;;
13641;SDS011;6894;52.196;9.904;2023-09-12T13:03:42;6.83;;;6.23;;
13641;SDS011;6894;52.196;9.904;2023-09-12T13:06:10;7.33;;;5.80;;
13641;SDS011;6894;52.196;9.904;2023-09-12T13:08:39;7.77;;;7.07;;
13641;SDS011;6894;52.196;9.904;2023-09-12T13:11:08;7.13;;;6.53;;
13641;SDS011;6894;52.196;9.904;2023-09-12T13:13:35;7.87;;;7.00;;
13641;SDS011;6894;52.196;9.904;2023-09-12T13:16:02;10.87;;;7.40;;
13641;SDS011;6894;52.196;9.904;2023-09-12T13:18:32;7.83;;;6.87;;
13641;SDS011;6894;52.196;9.904;2023-09-12T13:20:59;6.90;;;6.20;;
13641;SDS011;6894;52.196;9.904;2023-09-12T13:23:26;7.27;;;6.57;;
13641;SDS011;6894;52.196;9.904;2023-09-12T13:25:53;6.70;;;6.07;;
13641;SDS011;6894;52.196;9.904;2023-09-12T13:28:20;7.87;;;7.27;;
13641;SDS011;6894;52.196;9.904;2023-09-12T13:30:50;7.40;;;6.70;;
13641;SDS011;6894;52.196;9.904;2023-09-12T13:33:17;8.63;;;7.67;;
13641;SDS011;6894;52.196;9.904;2023-09-12T13:35:45;7.53;;;6.97;;
13641;SDS011;6894;52.196;9.904;2023-09-12T13:38:13;7.30;;;6.67;;
13641;SDS011;6894;52.196;9.904;2023-09-12T13:40:42;6.97;;;6.37;;
13641;SDS011;6894;52.196;9.904;2023-09-12T13:43:09;7.70;;;7.00;;
13641;SDS011;6894;52.196;9.904;2023-09-12T13:45:36;8.20;;;7.40;;
13641;SDS011;6894;52.196;9.904;2023-09-12T13:48:03;8.20;;;7.50;;
13641;SDS011;6894;52.196;9.904;2023-09-12T13:50:31;8.53;;;6.10;;
13641;SDS011;6894;52.196;9.904;2023-09-12T13:53:00;6.43;;;5.93;;
13641;SDS011;6894;52.196;9.904;2023-09-12T13:55:28;7.07;;;6.47;;
13641;SDS011;6894;52.196;9.904;2023-09-12T13:57:55;5.53;;;5.13;;
13641;SDS011;6894;52.196;9.904;2023-09-12T14:00:22;4.87;;;4.40;;
13641;SDS011;6894;52.196;9.904;2023-09-12T14:02:49;5.67;;;4.53;;
13641;SDS011;6894;52.196;9.904;2023-09-12T14:05:15;4.40;;;4.00;;
13641;SDS011;6894;52.196;9.904;2023-09-12T14:07:42;4.77;;;4.37;;
13641;SDS011;6894;52.196;9.904;2023-09-12T14:10:11;4.63;;;4.23;;
13641;SDS011;6894;52.196;9.904;2023-09-12T14:12:37;4.97;;;3.77;;
13641;SDS011;6894;52.196;9.904;2023-09-12T14:15:04;3.83;;;3.53;;
13641;SDS011;6894;52.196;9.904;2023-09-12T14:17:32;4.23;;;3.70;;
13641;SDS011;6894;52.196;9.904;2023-09-12T14:19:58;3.70;;;3.13;;
13641;SDS011;6894;52.196;9.904;2023-09-12T14:22:25;3.07;;;2.87;;
13641;SDS011;6894;52.196;9.904;2023-09-12T14:24:52;3.67;;;1.90;;
13641;SDS011;6894;52.196;9.904;2023-09-12T14:27:20;2.13;;;1.80;;
13641;SDS011;6894;52.196;9.904;2023-09-12T14:29:47;1.53;;;1.43;;
13641;SDS011;6894;52.196;9.904;2023-09-12T14:32:15;2.10;;;1.90;;
13641;SDS011;6894;52.196;9.904;2023-09-12T14:34:42;3.27;;;2.50;;
13641;SDS011;6894;52.196;9.904;2023-09-12T14:37:10;1.90;;;1.80;;
13641;SDS011;6894;52.196;9.904;2023-09-12T14:39:37;2.38;;;2.10;;
13641;SDS011;6894;52.196;9.904;2023-09-12T14:42:03;2.30;;;1.90;;
13641;SDS011;6894;52.196;9.904;2023-09-12T14:44:35;2.38;;;1.80;;
13641;SDS011;6894;52.196;9.904;2023-09-12T14:47:02;3.35;;;2.00;;
13641;SDS011;6894;52.196;9.904;2023-09-12T14:49:28;2.42;;;2.22;;
13641;SDS011;6894;52.196;9.904;2023-09-12T14:51:55;3.22;;;2.53;;
13641;SDS011;6894;52.196;9.904;2023-09-12T14:54:22;2.92;;;2.63;;